Terminal Aerodrome Forecast
Issued by NWS

Home | Current Version | Previous Version | Text Only | Print | Product List | Glossary On
Versions: 1 2 3 4 5 6 7 8 9 10 11 12 13 14 15 16 17 18 19 20
000
FTUS43 KLSX 032332
TAFCPS
TAF
KCPS 032332Z 0400/0424 36008KT P6SM SCT035
     FM040100 VRB03KT P6SM SKC
     FM041100 00000KT 5SM BR SKC
     FM041300 04004KT P6SM FEW025=

USA.gov is the U.S. government's official web portal to all federal, state and local government web resources and services.